Inicio METAR Ruta Wind Satelite

Informe Meteorológico

Fecha: 2020/09/22 21:03:22 Local
2020.09.23 02:03 UTC


Estado: VENCIDO
Operación:
Station name not available
2020.08.14 1400 UTC
Wind: Variable at 2 MPH (2 KT):0
Visibility: greater than 7 mile(s):0
Sky conditions: mostly cloudy
Temperature: 82 F (28 C)
Dew Point: 75 F (24 C)
Relative Humidity: 78%
Pressure (altimeter): 29.97 in. Hg (1014 hPa)
ob: SKGO 141400Z VRB02KT 9999 SCT012 BKN080 28/24 A2997
cycle: 14